Airfield :
LOGIN :

Register | Disclaimer

   EN    FR    IT 

 










Legend :    VFR   Marginal VFR   IFR   Intensive IFR   Very Intensive IFR
Visi :
Ceiling :
>= 8 km
>= 3000ft
5 to 8 km
1000 to 3000 ft
1500m to 5 km
500 to 1000 ft
800 to 1500m
200 to 500 ft
< 800m
< 200 ft
Symbols :   Thunderstorms  Fog  Heavy snow  Heavy precipitations  Wind > 20 kt
SIGMETs :     Misc.  Thunderstorms  Icing  Turbulence  Mountain Waves  Volcanic Ashes






- Airport Elevation : 235 ft
- IATA code : BZG


EPBY - Bydgoszcz

CURRENT METAR :
  • 281100Z 10008KT 7000 NSC 03/02 Q1022

EXPIRED METARs :
  • 281030Z 10008KT 6000 FEW003 02/02 Q1023
  • 281000Z 10007KT 2600 BR BKN002 01/01 Q1023
  • 280930Z 08009KT 0800 R26/1100U FG VV002 01/01 Q1023
  • 280900Z 10007KT 0650 0450W R26/0650N FG OVC001 00/00 Q1023
  • 280830Z 11004KT 070V130 0600 0350W R26/0500N FG VV001 00/00 Q1023
  • 280800Z 10006KT 0350 0300W R26/0550N FZFG VV001 M00/M00 Q1023

TAF TAF EPBY
Valid from the 28 at 06:00 until the 29 at 06:00 UTC


280530Z 2806/2906 11008KT 0300 FZFG OVC002
BECMG 2807/2809 4000 BR BKN005 OVC010
BECMG 2809/2811 8000 NSW BKN015
PROB40 2818/2906 4000 BR



MET'MAP, your aeronautical weather chart ! - Copyright ORBIFLY December 2007 - Disclaimer

ORBIFLY MET'MAP TEAM :

Programming & Development : Alexandra Zaïnal
Original concept : Baudouin d'Aumeries
Technical & hardware support : Manuel Goepfert
Assistance : Marc-Olivier Méhu




SOURCES & CREDITS :

   NOAA